Impacts METAR Board INFO
IDs:

KDEN - Denver Intl, CO, US

Updated at: 0918 UTC 20 Jan 2018
Potential Impact None Slight Moderate High
Time19/21Z 19/22Z 19/23Z 20/00Z 20/01Z 20/02Z 20/03Z 20/04Z 20/05Z 20/06Z 20/07Z 20/08Z 20/09Z
VIS10 10 10 10 10 10 10 10 10 10 10 10 10
CIG220 220 220 220 220 -- -- -- -- -- -- -- --
CoverBKNBKNBKNBKNBKNSCTSCTSCTSCTSCTFEWFEWFEW
FltCatVFRVFRVFRVFRVFRVFRVFRVFRVFRVFRVFRVFRVFR
WX--------------------------
WDir303080120150140140160200220190220210
WSpd4 8 5 6 9 9 10 11 8 7 7 14 13
WGst-- -- -- -- -- -- -- -- -- -- -- -- --
Raw hourly METARs
KDEN 192053Z 03004KT 10SM FEW100 FEW140 BKN220 18/M09 A2971 RMK AO2 SLP008 T01831089 56023
KDEN 192153Z 03008KT 10SM FEW100 FEW140 BKN220 18/M08 A2971 RMK AO2 SLP010 T01831078
KDEN 192253Z 08005KT 10SM FEW100 FEW140 BKN220 18/M06 A2971 RMK AO2 SLP015 ACSL OMTNS DSNT SW-NW T01781056
KDEN 192353Z 12006KT 10SM FEW100 FEW140 BKN220 12/M05 A2972 RMK AO2 SLP027 ACSL OMTNS DSNT SW-NW T01221050 10194 20122 53001
KDEN 200053Z 15009KT 10SM FEW140 BKN220 08/M07 A2973 RMK AO2 SLP041 T00781067
KDEN 200153Z 14009KT 10SM FEW140 SCT220 07/M07 A2974 RMK AO2 SLP037 T00721072
KDEN 200253Z 14010KT 10SM SCT220 06/M07 A2974 RMK AO2 SLP046 T00611072 51007
KDEN 200353Z 16011KT 10SM SCT220 08/M08 A2974 RMK AO2 SLP033 T00831083
KDEN 200453Z 20008KT 10SM SCT220 08/M09 A2975 RMK AO2 SLP037 T00781094
KDEN 200553Z 22007KT 10SM SCT220 09/M10 A2975 RMK AO2 SLP033 T00891100 10122 20050 53003
KDEN 200653Z 19007KT 10SM FEW220 07/M10 A2974 RMK AO2 SLP025 T00671100 401940017
KDEN 200753Z 22014KT 10SM FEW220 08/M09 A2973 RMK AO2 SLP020 T00831094
KDEN 200853Z 21013KT 10SM FEW220 06/M09 A2974 RMK AO2 SLP024 T00611089 55004